CTV025 WIMM-WIHH
Flight info
| Callsign | CTV025 |
|---|---|
| Flight time | N/A |
| Altitude | 37000 |
| Route | MEDIA W12 PKU A585 PLB G461 BORAS W12E BIDAK |
| Aircraft | A320/M-SDE2E3FGHIRWY/LB1 |
Departure
| Time | N/A |
|---|---|
| Airport | Kualanamu International Airport (WIMM) |
Arrival
| Time | 2026-04-13 06:32 |
|---|---|
| Airport | Halim Perdanakusuma International Airport (WIHH) |
| Time | Latitude | Longitude | Altitude | Speed | Heading |
|---|---|---|---|---|---|
| 2026-04-13 05:31 | -1.94245 | 103.74097 | 36924 ft | 442 kts | 134° |
| 2026-04-13 05:31 | -1.96449 | 103.76242 | 36923 ft | 441 kts | 134° |
| 2026-04-13 05:31 | -2.00847 | 103.80522 | 36923 ft | 441 kts | 134° |
| 2026-04-13 05:32 | -2.05246 | 103.84807 | 36921 ft | 441 kts | 134° |
| 2026-04-13 05:32 | -2.09644 | 103.89088 | 36914 ft | 441 kts | 134° |
| 2026-04-13 05:33 | -2.14038 | 103.93362 | 36913 ft | 441 kts | 134° |
| 2026-04-13 05:33 | -2.18435 | 103.97646 | 36912 ft | 441 kts | 134° |
| 2026-04-13 05:34 | -2.22822 | 104.01924 | 36911 ft | 441 kts | 134° |
| 2026-04-13 05:34 | -2.27218 | 104.06206 | 36910 ft | 441 kts | 134° |
| 2026-04-13 05:35 | -2.31606 | 104.10483 | 36907 ft | 441 kts | 134° |
| 2026-04-13 05:35 | -2.35994 | 104.14755 | 36906 ft | 440 kts | 134° |
| 2026-04-13 05:36 | -2.40383 | 104.19031 | 36909 ft | 440 kts | 134° |
| 2026-04-13 05:36 | -2.44738 | 104.23271 | 36910 ft | 440 kts | 134° |
| 2026-04-13 05:37 | -2.49112 | 104.27531 | 36911 ft | 439 kts | 134° |
| 2026-04-13 05:37 | -2.53488 | 104.31801 | 36905 ft | 439 kts | 134° |
| 2026-04-13 05:38 | -2.57867 | 104.36063 | 36907 ft | 439 kts | 134° |
| 2026-04-13 05:38 | -2.62237 | 104.40324 | 36905 ft | 439 kts | 134° |
| 2026-04-13 05:39 | -2.66608 | 104.44595 | 36906 ft | 439 kts | 134° |
| 2026-04-13 05:39 | -2.70979 | 104.48859 | 36909 ft | 439 kts | 134° |
| 2026-04-13 05:40 | -2.75354 | 104.53124 | 36917 ft | 439 kts | 134° |
| 2026-04-13 05:40 | -2.79731 | 104.57385 | 36900 ft | 439 kts | 134° |
| 2026-04-13 05:41 | -2.84104 | 104.61645 | 36897 ft | 439 kts | 134° |
| 2026-04-13 05:41 | -2.88413 | 104.65968 | 36897 ft | 438 kts | 129° |
| 2026-04-13 05:42 | -2.92344 | 104.70633 | 36899 ft | 438 kts | 129° |
| 2026-04-13 05:43 | -2.98252 | 104.77621 | 36893 ft | 439 kts | 129° |
| 2026-04-13 05:43 | -3.02195 | 104.82285 | 36901 ft | 439 kts | 129° |
| 2026-04-13 05:44 | -3.06129 | 104.86951 | 36903 ft | 439 kts | 128° |
| 2026-04-13 05:44 | -3.10065 | 104.91625 | 36900 ft | 439 kts | 129° |
| 2026-04-13 05:45 | -3.13982 | 104.96266 | 36902 ft | 439 kts | 129° |
| 2026-04-13 05:45 | -3.17846 | 105.00836 | 36902 ft | 439 kts | 129° |
| 2026-04-13 05:46 | -3.21784 | 105.05508 | 36901 ft | 439 kts | 128° |
| 2026-04-13 05:46 | -3.25730 | 105.10195 | 36900 ft | 439 kts | 128° |
| 2026-04-13 05:47 | -3.29671 | 105.14866 | 36896 ft | 439 kts | 128° |
| 2026-04-13 05:47 | -3.33605 | 105.19525 | 36896 ft | 439 kts | 128° |
| 2026-04-13 05:48 | -3.37552 | 105.24203 | 36897 ft | 439 kts | 128° |
| 2026-04-13 05:48 | -3.41483 | 105.28866 | 36898 ft | 439 kts | 128° |
| 2026-04-13 05:49 | -3.45415 | 105.33540 | 36898 ft | 438 kts | 128° |
| 2026-04-13 05:49 | -3.49346 | 105.38206 | 36896 ft | 438 kts | 128° |
| 2026-04-13 05:50 | -3.53276 | 105.42866 | 36903 ft | 438 kts | 128° |
| 2026-04-13 05:50 | -3.57203 | 105.47525 | 36900 ft | 438 kts | 128° |
| 2026-04-13 05:51 | -3.61129 | 105.52187 | 36901 ft | 438 kts | 128° |
| 2026-04-13 05:51 | -3.65051 | 105.56841 | 36901 ft | 437 kts | 128° |
| 2026-04-13 05:52 | -3.68983 | 105.61498 | 36900 ft | 437 kts | 128° |
| 2026-04-13 05:52 | -3.72909 | 105.66150 | 36903 ft | 437 kts | 128° |
| 2026-04-13 05:53 | -3.76806 | 105.70772 | 36902 ft | 437 kts | 128° |
| 2026-04-13 05:53 | -3.80421 | 105.75063 | 36898 ft | 437 kts | 128° |
| 2026-04-13 05:54 | -3.84358 | 105.79718 | 36904 ft | 437 kts | 128° |
| 2026-04-13 05:54 | -3.88307 | 105.84398 | 36901 ft | 437 kts | 128° |
| 2026-04-13 05:55 | -3.92203 | 105.89028 | 36898 ft | 437 kts | 128° |
| 2026-04-13 05:55 | -3.96127 | 105.93681 | 36906 ft | 437 kts | 128° |
| 2026-04-13 05:56 | -4.00039 | 105.98323 | 36905 ft | 437 kts | 128° |
| 2026-04-13 05:56 | -4.03931 | 106.03015 | 36904 ft | 436 kts | 123° |
| 2026-04-13 05:57 | -4.07031 | 106.08224 | 38537 ft | 435 kts | 121° |
| 2026-04-13 05:57 | -4.10049 | 106.13472 | 38185 ft | 436 kts | 120° |
| 2026-04-13 05:57 | -4.11580 | 106.16118 | 37593 ft | 435 kts | 121° |
| 2026-04-13 05:58 | -4.13100 | 106.18728 | 37046 ft | 434 kts | 121° |
| 2026-04-13 05:58 | -4.14613 | 106.21322 | 36839 ft | 433 kts | 121° |
| 2026-04-13 05:58 | -4.16137 | 106.23945 | 36844 ft | 434 kts | 121° |
| 2026-04-13 05:59 | -4.19131 | 106.29127 | 36887 ft | 427 kts | 119° |
| 2026-04-13 05:59 | -4.22100 | 106.34272 | 36901 ft | 426 kts | 119° |
| 2026-04-13 06:00 | -4.25066 | 106.39403 | 36895 ft | 426 kts | 119° |
| 2026-04-13 06:00 | -4.28029 | 106.44533 | 36891 ft | 425 kts | 119° |
| 2026-04-13 06:01 | -4.30968 | 106.49634 | 36897 ft | 425 kts | 119° |
| 2026-04-13 06:01 | -4.33932 | 106.54758 | 36891 ft | 425 kts | 119° |
| 2026-04-13 06:02 | -4.36895 | 106.59895 | 36896 ft | 426 kts | 119° |
| 2026-04-13 06:02 | -4.39859 | 106.65042 | 36895 ft | 426 kts | 119° |
| 2026-04-13 06:03 | -4.42811 | 106.70167 | 36889 ft | 426 kts | 119° |
| 2026-04-13 06:03 | -4.45782 | 106.75323 | 36890 ft | 426 kts | 119° |
| 2026-04-13 06:04 | -4.48745 | 106.80463 | 36889 ft | 427 kts | 119° |
| 2026-04-13 06:04 | -4.51720 | 106.85619 | 36897 ft | 427 kts | 119° |
| 2026-04-13 06:05 | -4.54698 | 106.90772 | 36890 ft | 427 kts | 119° |
| 2026-04-13 06:05 | -4.57673 | 106.95922 | 36899 ft | 427 kts | 119° |
| 2026-04-13 06:06 | -4.60683 | 107.01061 | 36896 ft | 428 kts | 124° |
| 2026-04-13 06:06 | -4.64894 | 107.05254 | 36891 ft | 432 kts | 145° |
| 2026-04-13 06:06 | -4.67550 | 107.06674 | 36886 ft | 434 kts | 156° |
| 2026-04-13 06:07 | -4.70421 | 107.07562 | 36882 ft | 438 kts | 166° |
| 2026-04-13 06:07 | -4.76370 | 107.08802 | 36836 ft | 440 kts | 166° |
| 2026-04-13 06:07 | -4.79368 | 107.09434 | 36365 ft | 441 kts | 166° |
| 2026-04-13 06:08 | -4.82379 | 107.10070 | 35547 ft | 445 kts | 166° |
| 2026-04-13 06:08 | -4.85422 | 107.10714 | 34705 ft | 449 kts | 166° |
| 2026-04-13 06:08 | -4.88426 | 107.11349 | 33854 ft | 452 kts | 166° |
| 2026-04-13 06:08 | -4.91481 | 107.11992 | 33080 ft | 454 kts | 166° |
| 2026-04-13 06:09 | -4.94590 | 107.12645 | 32550 ft | 449 kts | 166° |
| 2026-04-13 06:09 | -4.97639 | 107.13281 | 31944 ft | 446 kts | 166° |
| 2026-04-13 06:09 | -5.00634 | 107.13907 | 31365 ft | 443 kts | 166° |
| 2026-04-13 06:09 | -5.03604 | 107.14531 | 30780 ft | 441 kts | 166° |
| 2026-04-13 06:10 | -5.06619 | 107.15168 | 30163 ft | 437 kts | 171° |
| 2026-04-13 06:10 | -5.09584 | 107.15794 | 29568 ft | 433 kts | 166° |
| 2026-04-13 06:10 | -5.12488 | 107.16407 | 29434 ft | 419 kts | 171° |
| 2026-04-13 06:10 | -5.15300 | 107.17005 | 29196 ft | 409 kts | 172° |
| 2026-04-13 06:11 | -5.18078 | 107.17595 | 28669 ft | 407 kts | 172° |
| 2026-04-13 06:11 | -5.20833 | 107.18175 | 28138 ft | 406 kts | 172° |
| 2026-04-13 06:11 | -5.23599 | 107.18756 | 27628 ft | 403 kts | 172° |
| 2026-04-13 06:11 | -5.26343 | 107.19330 | 27121 ft | 401 kts | 172° |
| 2026-04-13 06:12 | -5.29059 | 107.19896 | 26623 ft | 399 kts | 172° |
| 2026-04-13 06:12 | -5.31771 | 107.20463 | 26141 ft | 396 kts | 171° |
| 2026-04-13 06:12 | -5.34426 | 107.21193 | 24491 ft | 396 kts | 161° |
| 2026-04-13 06:12 | -5.36861 | 107.22413 | 24310 ft | 384 kts | 146° |
| 2026-04-13 06:13 | -5.39014 | 107.23926 | 24043 ft | 376 kts | 143° |
| 2026-04-13 06:13 | -5.41133 | 107.25450 | 23586 ft | 375 kts | 143° |
| 2026-04-13 06:13 | -5.43246 | 107.26966 | 23067 ft | 374 kts | 143° |
| 2026-04-13 06:13 | -5.45371 | 107.28487 | 22587 ft | 372 kts | 143° |
| 2026-04-13 06:14 | -5.47455 | 107.29977 | 22114 ft | 370 kts | 144° |
| 2026-04-13 06:14 | -5.53498 | 107.34305 | 20743 ft | 367 kts | 144° |
| 2026-04-13 06:15 | -5.55571 | 107.35795 | 20257 ft | 366 kts | 144° |
| 2026-04-13 06:15 | -5.57621 | 107.37269 | 19777 ft | 366 kts | 145° |
| 2026-04-13 06:15 | -5.59709 | 107.38772 | 19284 ft | 367 kts | 145° |
| 2026-04-13 06:15 | -5.61782 | 107.40264 | 18793 ft | 367 kts | 145° |
| 2026-04-13 06:16 | -5.63865 | 107.41762 | 18287 ft | 368 kts | 146° |
| 2026-04-13 06:16 | -5.65948 | 107.43259 | 17766 ft | 368 kts | 146° |
| 2026-04-13 06:16 | -5.68024 | 107.44753 | 17283 ft | 367 kts | 146° |
| 2026-04-13 06:16 | -5.70096 | 107.46245 | 16800 ft | 366 kts | 146° |
| 2026-04-13 06:17 | -5.72157 | 107.47729 | 16334 ft | 364 kts | 146° |
| 2026-04-13 06:17 | -5.74215 | 107.49207 | 15856 ft | 363 kts | 146° |
| 2026-04-13 06:17 | -5.76265 | 107.50680 | 15392 ft | 362 kts | 146° |
| 2026-04-13 06:17 | -5.78314 | 107.52152 | 14922 ft | 362 kts | 146° |
| 2026-04-13 06:18 | -5.80362 | 107.53622 | 14450 ft | 361 kts | 146° |
| 2026-04-13 06:18 | -5.82397 | 107.55086 | 13985 ft | 360 kts | 146° |
| 2026-04-13 06:18 | -5.84432 | 107.56553 | 13482 ft | 360 kts | 146° |
| 2026-04-13 06:18 | -5.86461 | 107.58015 | 12989 ft | 358 kts | 146° |
| 2026-04-13 06:19 | -5.88477 | 107.59468 | 12491 ft | 356 kts | 146° |
| 2026-04-13 06:19 | -5.90484 | 107.60910 | 12019 ft | 353 kts | 146° |
| 2026-04-13 06:19 | -5.92533 | 107.62235 | 11526 ft | 349 kts | 158° |
| 2026-04-13 06:19 | -5.94869 | 107.62729 | 11059 ft | 343 kts | 182° |
| 2026-04-13 06:20 | -5.97163 | 107.62185 | 10518 ft | 341 kts | 207° |
| 2026-04-13 06:20 | -5.98958 | 107.60683 | 10218 ft | 333 kts | 232° |
| 2026-04-13 06:20 | -6.00227 | 107.58790 | 10106 ft | 321 kts | 236° |
| 2026-04-13 06:20 | -6.01429 | 107.56952 | 9991 ft | 309 kts | 236° |
| 2026-04-13 06:21 | -6.02590 | 107.55179 | 9866 ft | 298 kts | 236° |
| 2026-04-13 06:21 | -6.03718 | 107.53458 | 9590 ft | 294 kts | 236° |
| 2026-04-13 06:21 | -6.04841 | 107.51748 | 9221 ft | 292 kts | 236° |
| 2026-04-13 06:21 | -6.05945 | 107.50063 | 8963 ft | 288 kts | 236° |
| 2026-04-13 06:22 | -6.07024 | 107.48415 | 8708 ft | 286 kts | 236° |
| 2026-04-13 06:22 | -6.08113 | 107.46748 | 8458 ft | 285 kts | 236° |
| 2026-04-13 06:22 | -6.09198 | 107.45083 | 8234 ft | 284 kts | 236° |
| 2026-04-13 06:22 | -6.10282 | 107.43418 | 8008 ft | 283 kts | 236° |
| 2026-04-13 06:23 | -6.11359 | 107.41765 | 7776 ft | 283 kts | 236° |
| 2026-04-13 06:23 | -6.12435 | 107.40117 | 7548 ft | 282 kts | 236° |
| 2026-04-13 06:23 | -6.13502 | 107.38481 | 7325 ft | 281 kts | 236° |
| 2026-04-13 06:23 | -6.14574 | 107.36837 | 7092 ft | 280 kts | 235° |
| 2026-04-13 06:24 | -6.15534 | 107.35365 | 6888 ft | 279 kts | 235° |
| 2026-04-13 06:24 | -6.15565 | 107.35318 | 6884 ft | 279 kts | 235° |
| 2026-04-13 06:24 | -6.16524 | 107.33846 | 6680 ft | 278 kts | 235° |
| 2026-04-13 06:24 | -6.17582 | 107.32223 | 6448 ft | 278 kts | 235° |
| 2026-04-13 06:25 | -6.18640 | 107.30587 | 6218 ft | 278 kts | 238° |
| 2026-04-13 06:25 | -6.19387 | 107.28804 | 5983 ft | 279 kts | 254° |
| 2026-04-13 06:25 | -6.19634 | 107.26866 | 5595 ft | 280 kts | 269° |
| 2026-04-13 06:25 | -6.19628 | 107.24922 | 5214 ft | 279 kts | 269° |
| 2026-04-13 06:26 | -6.19629 | 107.22965 | 4835 ft | 278 kts | 268° |
| 2026-04-13 06:26 | -6.19635 | 107.21035 | 4456 ft | 277 kts | 269° |
| 2026-04-13 06:26 | -6.19642 | 107.19106 | 4085 ft | 276 kts | 269° |
| 2026-04-13 06:26 | -6.19649 | 107.17171 | 3703 ft | 275 kts | 269° |
| 2026-04-13 06:27 | -6.19656 | 107.15275 | 3600 ft | 264 kts | 269° |
| 2026-04-13 06:27 | -6.19660 | 107.13517 | 3594 ft | 249 kts | 269° |
| 2026-04-13 06:27 | -6.19665 | 107.11854 | 3596 ft | 238 kts | 269° |
| 2026-04-13 06:27 | -6.19665 | 107.10514 | 3595 ft | 236 kts | 269° |
| 2026-04-13 06:28 | -6.19668 | 107.08863 | 3594 ft | 235 kts | 269° |
| 2026-04-13 06:28 | -6.19673 | 107.07209 | 3294 ft | 241 kts | 269° |
| 2026-04-13 06:28 | -6.19679 | 107.06037 | 3018 ft | 238 kts | 269° |
| 2026-04-13 06:28 | -6.19713 | 107.04582 | 2885 ft | 226 kts | 262° |
| 2026-04-13 06:29 | -6.20197 | 107.03144 | 2750 ft | 220 kts | 244° |
| 2026-04-13 06:29 | -6.20856 | 107.01746 | 2489 ft | 221 kts | 244° |
| 2026-04-13 06:29 | -6.21518 | 107.00325 | 2219 ft | 222 kts | 244° |
| 2026-04-13 06:29 | -6.22139 | 106.98976 | 1960 ft | 208 kts | 245° |
| 2026-04-13 06:30 | -6.22721 | 106.97706 | 1686 ft | 191 kts | 245° |
| 2026-04-13 06:30 | -6.23258 | 106.96535 | 1470 ft | 177 kts | 245° |
| 2026-04-13 06:30 | -6.23427 | 106.96167 | 1391 ft | 174 kts | 246° |
| 2026-04-13 06:30 | -6.23482 | 106.96046 | 1357 ft | 173 kts | 246° |
| 2026-04-13 06:31 | -6.23969 | 106.94984 | 1145 ft | 165 kts | 246° |
| 2026-04-13 06:31 | -6.24435 | 106.93967 | 953 ft | 160 kts | 245° |
| 2026-04-13 06:31 | -6.24890 | 106.92975 | 738 ft | 158 kts | 245° |
| 2026-04-13 06:31 | -6.25354 | 106.91963 | 540 ft | 159 kts | 245° |
| 2026-04-13 06:32 | -6.25784 | 106.91016 | 326 ft | 157 kts | 246° |
| 2026-04-13 06:32 | -6.26197 | 106.90107 | 106 ft | 154 kts | 245° |
| 2026-04-13 06:32 | -6.26610 | 106.89240 | 95 ft | 121 kts | 243° |
| 2026-04-13 06:32 | -6.26842 | 106.88714 | 93 ft | 34 kts | 245° |
| 2026-04-13 06:33 | -6.26897 | 106.88551 | 91 ft | 8 kts | 295° |
| 2026-04-13 06:33 | -6.26862 | 106.88534 | 92 ft | 7 kts | 337° |
| 2026-04-13 06:33 | -6.26802 | 106.88504 | 95 ft | 12 kts | 330° |
| 2026-04-13 06:33 | -6.26746 | 106.88476 | 94 ft | 13 kts | 348° |
| 2026-04-13 06:34 | -6.26672 | 106.88503 | 93 ft | 7 kts | 347° |
| 2026-04-13 06:34 | -6.26669 | 106.88500 | 93 ft | 0 kts | 318° |
| 2026-04-13 06:34 | -6.26665 | 106.88500 | 95 ft | 0 kts | 302° |